Terminal Aerodrome Forecast
Issued by NWS

Current Version | Previous Version | Graphics & Text | Print | Product List | Glossary On
Versions: 1 2 3 4 5 6 7 8 9 10 11 12 13 14 15 16 17
000
FTUS41 KPBZ 231100
TAFMGW
TAF
KMGW 231127Z 2312/2412 31008G16KT P6SM SCT025 BKN035
     FM231500 32008G15KT P6SM SCT040
     FM231900 32008G15KT P6SM SKC
     FM240100 33004KT P6SM SKC=

USA.gov is the U.S. government's official web portal to all federal, state and local government web resources and services.